EWG6Y EDDS-EDDK
Flight info
| Callsign | EWG6Y |
|---|---|
| Flight time | 0h 50m |
| Altitude | 22000 |
| Route | TAGIK2H/07 TAGIK Z3 VATAK T840 GULKO GULKO1F |
| Aircraft | A21N/M-SDE2E3FGHIRWXY/LB1 |
Departure
| Time | 2026-04-22 19:02 |
|---|---|
| Airport | Stuttgart Airport (EDDS) |
Arrival
| Time | 2026-04-22 19:52 |
|---|---|
| Airport | Cologne Bonn Airport (EDDK) |
| Time | Latitude | Longitude | Altitude | Speed | Heading |
|---|---|---|---|---|---|
| 2026-04-22 18:32 | 48.68937 | 9.19647 | 1320 ft | 0 kts | 344° |
| 2026-04-22 18:41 | 48.68936 | 9.19647 | 1319 ft | 0 kts | 344° |
| 2026-04-22 18:48 | 48.68933 | 9.19649 | 1319 ft | 3 kts | 344° |
| 2026-04-22 18:48 | 48.68907 | 9.19660 | 1317 ft | 4 kts | 345° |
| 2026-04-22 18:48 | 48.68881 | 9.19664 | 1315 ft | 4 kts | 12° |
| 2026-04-22 18:48 | 48.68860 | 9.19648 | 1314 ft | 4 kts | 56° |
| 2026-04-22 18:49 | 48.68855 | 9.19632 | 1315 ft | 0 kts | 74° |
| 2026-04-22 18:55 | 48.68858 | 9.19650 | 1314 ft | 3 kts | 74° |
| 2026-04-22 18:55 | 48.68867 | 9.19701 | 1313 ft | 6 kts | 74° |
| 2026-04-22 18:56 | 48.68880 | 9.19769 | 1311 ft | 8 kts | 74° |
| 2026-04-22 18:56 | 48.68888 | 9.19852 | 1308 ft | 9 kts | 111° |
| 2026-04-22 18:56 | 48.68833 | 9.19901 | 1304 ft | 10 kts | 158° |
| 2026-04-22 18:56 | 48.68768 | 9.19953 | 1299 ft | 11 kts | 155° |
| 2026-04-22 18:57 | 48.68734 | 9.19970 | 1297 ft | 0 kts | 167° |
| 2026-04-22 18:58 | 48.68729 | 9.19972 | 1297 ft | 1 kts | 167° |
| 2026-04-22 18:58 | 48.68714 | 9.19977 | 1296 ft | 3 kts | 167° |
| 2026-04-22 18:58 | 48.68689 | 9.19986 | 1294 ft | 4 kts | 167° |
| 2026-04-22 18:59 | 48.68655 | 9.19998 | 1292 ft | 5 kts | 167° |
| 2026-04-22 18:59 | 48.68647 | 9.20001 | 1291 ft | 5 kts | 167° |
| 2026-04-22 18:59 | 48.68638 | 9.20004 | 1291 ft | 5 kts | 167° |
| 2026-04-22 18:59 | 48.68595 | 9.20019 | 1290 ft | 7 kts | 167° |
| 2026-04-22 19:00 | 48.68583 | 9.20040 | 1289 ft | 5 kts | 99° |
| 2026-04-22 19:00 | 48.68585 | 9.20065 | 1289 ft | 0 kts | 71° |
| 2026-04-22 19:01 | 48.68586 | 9.20070 | 1289 ft | 4 kts | 71° |
| 2026-04-22 19:01 | 48.68722 | 9.20801 | 1274 ft | 102 kts | 74° |
| 2026-04-22 19:01 | 48.68880 | 9.21633 | 1258 ft | 138 kts | 73° |
| 2026-04-22 19:02 | 48.69179 | 9.23227 | 1347 ft | 171 kts | 73° |
| 2026-04-22 19:02 | 48.69463 | 9.24921 | 2040 ft | 166 kts | 74° |
| 2026-04-22 19:02 | 48.69768 | 9.26595 | 2798 ft | 167 kts | 74° |
| 2026-04-22 19:02 | 48.70105 | 9.28350 | 3427 ft | 178 kts | 74° |
| 2026-04-22 19:03 | 48.70456 | 9.30148 | 4203 ft | 182 kts | 74° |
| 2026-04-22 19:03 | 48.70820 | 9.32041 | 4671 ft | 195 kts | 74° |
| 2026-04-22 19:03 | 48.71202 | 9.34028 | 4888 ft | 197 kts | 74° |
| 2026-04-22 19:03 | 48.71577 | 9.35972 | 4981 ft | 220 kts | 74° |
| 2026-04-22 19:04 | 48.71766 | 9.36956 | 5000 ft | 222 kts | 74° |
| 2026-04-22 19:04 | 48.72192 | 9.39179 | 5022 ft | 222 kts | 74° |
| 2026-04-22 19:04 | 48.72868 | 9.41271 | 5003 ft | 224 kts | 47° |
| 2026-04-22 19:04 | 48.74254 | 9.42376 | 5007 ft | 232 kts | 14° |
| 2026-04-22 19:05 | 48.75842 | 9.42722 | 5020 ft | 233 kts | 13° |
| 2026-04-22 19:05 | 48.76265 | 9.42835 | 5039 ft | 233 kts | 15° |
| 2026-04-22 19:05 | 48.77518 | 9.43321 | 5144 ft | 232 kts | 21° |
| 2026-04-22 19:05 | 48.79057 | 9.44097 | 5236 ft | 234 kts | 17° |
| 2026-04-22 19:06 | 48.80539 | 9.44018 | 5275 ft | 243 kts | 345° |
| 2026-04-22 19:06 | 48.81983 | 9.42623 | 5306 ft | 250 kts | 323° |
| 2026-04-22 19:06 | 48.83056 | 9.41244 | 5311 ft | 250 kts | 324° |
| 2026-04-22 19:07 | 48.84781 | 9.39411 | 5317 ft | 248 kts | 332° |
| 2026-04-22 19:07 | 48.86265 | 9.38086 | 5479 ft | 245 kts | 334° |
| 2026-04-22 19:07 | 48.87777 | 9.36833 | 6422 ft | 249 kts | 335° |
| 2026-04-22 19:07 | 48.89327 | 9.35610 | 7234 ft | 263 kts | 336° |
| 2026-04-22 19:08 | 48.91029 | 9.34302 | 7881 ft | 281 kts | 336° |
| 2026-04-22 19:08 | 48.92742 | 9.32705 | 8675 ft | 298 kts | 320° |
| 2026-04-22 19:08 | 48.93925 | 9.30013 | 9404 ft | 317 kts | 291° |
| 2026-04-22 19:08 | 48.94213 | 9.26694 | 10351 ft | 326 kts | 266° |
| 2026-04-22 19:09 | 48.93777 | 9.23373 | 11279 ft | 331 kts | 255° |
| 2026-04-22 19:09 | 48.93441 | 9.21386 | 11815 ft | 334 kts | 259° |
| 2026-04-22 19:09 | 48.93236 | 9.17860 | 12784 ft | 336 kts | 274° |
| 2026-04-22 19:09 | 48.93440 | 9.14508 | 13704 ft | 339 kts | 279° |
| 2026-04-22 19:10 | 48.93616 | 9.12570 | 14213 ft | 341 kts | 280° |
| 2026-04-22 19:10 | 48.93763 | 9.11055 | 14581 ft | 342 kts | 281° |
| 2026-04-22 19:10 | 48.94180 | 9.07460 | 15390 ft | 347 kts | 288° |
| 2026-04-22 19:10 | 48.95236 | 9.04176 | 15960 ft | 345 kts | 310° |
| 2026-04-22 19:11 | 48.96534 | 9.02172 | 16177 ft | 342 kts | 327° |
| 2026-04-22 19:11 | 48.98448 | 9.00021 | 16323 ft | 345 kts | 320° |
| 2026-04-22 19:11 | 49.00306 | 8.97787 | 16385 ft | 340 kts | 335° |
| 2026-04-22 19:11 | 49.02539 | 8.96736 | 16408 ft | 334 kts | 356° |
| 2026-04-22 19:12 | 49.04851 | 8.96445 | 16432 ft | 333 kts | 358° |
| 2026-04-22 19:12 | 49.07137 | 8.95985 | 16433 ft | 335 kts | 353° |
| 2026-04-22 19:12 | 49.09434 | 8.95271 | 16435 ft | 335 kts | 350° |
| 2026-04-22 19:12 | 49.11748 | 8.94409 | 16440 ft | 355 kts | 348° |
| 2026-04-22 19:13 | 49.14204 | 8.93424 | 16456 ft | 369 kts | 347° |
| 2026-04-22 19:13 | 49.16684 | 8.92380 | 16461 ft | 370 kts | 347° |
| 2026-04-22 19:13 | 49.19164 | 8.91317 | 16459 ft | 370 kts | 347° |
| 2026-04-22 19:13 | 49.21612 | 8.90253 | 16461 ft | 370 kts | 347° |
| 2026-04-22 19:14 | 49.24091 | 8.89170 | 16465 ft | 370 kts | 347° |
| 2026-04-22 19:14 | 49.26574 | 8.88090 | 16476 ft | 370 kts | 347° |
| 2026-04-22 19:14 | 49.29063 | 8.87011 | 16502 ft | 370 kts | 347° |
| 2026-04-22 19:14 | 49.31515 | 8.85944 | 16517 ft | 370 kts | 347° |
| 2026-04-22 19:15 | 49.33167 | 8.85224 | 16517 ft | 370 kts | 347° |
| 2026-04-22 19:15 | 49.36512 | 8.83766 | 16656 ft | 377 kts | 347° |
| 2026-04-22 19:15 | 49.39038 | 8.82667 | 17140 ft | 386 kts | 347° |
| 2026-04-22 19:15 | 49.41657 | 8.81525 | 17753 ft | 392 kts | 347° |
| 2026-04-22 19:16 | 49.44292 | 8.80371 | 18413 ft | 395 kts | 347° |
| 2026-04-22 19:16 | 49.45205 | 8.79971 | 18652 ft | 396 kts | 347° |
| 2026-04-22 19:16 | 49.47081 | 8.79152 | 19072 ft | 398 kts | 347° |
| 2026-04-22 19:16 | 49.49722 | 8.77997 | 19686 ft | 400 kts | 347° |
| 2026-04-22 19:17 | 49.52411 | 8.76812 | 20317 ft | 402 kts | 347° |
| 2026-04-22 19:17 | 49.55113 | 8.75621 | 20966 ft | 403 kts | 347° |
| 2026-04-22 19:17 | 49.57823 | 8.74421 | 21612 ft | 405 kts | 347° |
| 2026-04-22 19:17 | 49.60547 | 8.73222 | 22123 ft | 410 kts | 347° |
| 2026-04-22 19:18 | 49.62641 | 8.72307 | 22282 ft | 419 kts | 347° |
| 2026-04-22 19:18 | 49.65035 | 8.71262 | 22343 ft | 432 kts | 347° |
| 2026-04-22 19:18 | 49.67936 | 8.69985 | 22354 ft | 446 kts | 347° |
| 2026-04-22 19:18 | 49.70975 | 8.68647 | 22353 ft | 458 kts | 347° |
| 2026-04-22 19:19 | 49.74056 | 8.67279 | 22346 ft | 460 kts | 347° |
| 2026-04-22 19:19 | 49.77149 | 8.65905 | 22332 ft | 460 kts | 347° |
| 2026-04-22 19:19 | 49.80190 | 8.64558 | 22336 ft | 460 kts | 347° |
| 2026-04-22 19:19 | 49.82977 | 8.63323 | 22338 ft | 460 kts | 347° |
| 2026-04-22 19:20 | 49.84107 | 8.62819 | 22328 ft | 456 kts | 347° |
| 2026-04-22 19:20 | 49.87023 | 8.61509 | 22323 ft | 430 kts | 347° |
| 2026-04-22 19:20 | 49.89828 | 8.60250 | 22315 ft | 406 kts | 347° |
| 2026-04-22 19:20 | 49.92484 | 8.59067 | 22300 ft | 385 kts | 347° |
| 2026-04-22 19:21 | 49.95028 | 8.57934 | 22299 ft | 376 kts | 347° |
| 2026-04-22 19:21 | 49.97514 | 8.56828 | 22313 ft | 376 kts | 347° |
| 2026-04-22 19:21 | 50.00039 | 8.55702 | 22308 ft | 376 kts | 347° |
| 2026-04-22 19:21 | 50.02563 | 8.54569 | 22322 ft | 376 kts | 347° |
| 2026-04-22 19:22 | 50.05047 | 8.53458 | 22322 ft | 376 kts | 347° |
| 2026-04-22 19:22 | 50.07533 | 8.52249 | 22310 ft | 377 kts | 345° |
| 2026-04-22 19:22 | 50.09997 | 8.50894 | 22138 ft | 370 kts | 344° |
| 2026-04-22 19:22 | 50.12422 | 8.49553 | 21483 ft | 368 kts | 344° |
| 2026-04-22 19:23 | 50.14818 | 8.48239 | 20850 ft | 367 kts | 344° |
| 2026-04-22 19:23 | 50.17225 | 8.46929 | 20270 ft | 364 kts | 344° |
| 2026-04-22 19:23 | 50.19619 | 8.45633 | 19709 ft | 361 kts | 344° |
| 2026-04-22 19:23 | 50.21988 | 8.44348 | 19184 ft | 358 kts | 344° |
| 2026-04-22 19:24 | 50.24310 | 8.43093 | 18670 ft | 355 kts | 344° |
| 2026-04-22 19:24 | 50.26641 | 8.41832 | 18087 ft | 352 kts | 344° |
| 2026-04-22 19:24 | 50.28960 | 8.40575 | 17563 ft | 350 kts | 344° |
| 2026-04-22 19:24 | 50.31154 | 8.39018 | 17362 ft | 354 kts | 331° |
| 2026-04-22 19:25 | 50.32713 | 8.37360 | 17337 ft | 355 kts | 328° |
| 2026-04-22 19:25 | 50.34743 | 8.35117 | 17506 ft | 355 kts | 329° |
| 2026-04-22 19:25 | 50.36763 | 8.32975 | 17814 ft | 355 kts | 330° |
| 2026-04-22 19:25 | 50.38830 | 8.30850 | 18130 ft | 355 kts | 330° |
| 2026-04-22 19:26 | 50.40915 | 8.28742 | 18347 ft | 356 kts | 331° |
| 2026-04-22 19:26 | 50.43012 | 8.26634 | 18445 ft | 357 kts | 331° |
| 2026-04-22 19:26 | 50.44024 | 8.25618 | 18483 ft | 357 kts | 331° |
| 2026-04-22 19:26 | 50.46082 | 8.23549 | 18113 ft | 349 kts | 331° |
| 2026-04-22 19:27 | 50.48131 | 8.21489 | 17453 ft | 349 kts | 331° |
| 2026-04-22 19:27 | 50.50190 | 8.19418 | 16838 ft | 348 kts | 330° |
| 2026-04-22 19:27 | 50.52201 | 8.17389 | 16282 ft | 346 kts | 330° |
| 2026-04-22 19:27 | 50.54227 | 8.15353 | 15737 ft | 343 kts | 330° |
| 2026-04-22 19:28 | 50.56238 | 8.13329 | 15207 ft | 341 kts | 330° |
| 2026-04-22 19:28 | 50.58226 | 8.11325 | 14690 ft | 338 kts | 330° |
| 2026-04-22 19:28 | 50.58712 | 8.10835 | 14574 ft | 338 kts | 330° |
| 2026-04-22 19:28 | 50.59410 | 8.10130 | 14383 ft | 337 kts | 330° |
| 2026-04-22 19:29 | 50.61292 | 8.08229 | 13889 ft | 334 kts | 330° |
| 2026-04-22 19:29 | 50.61349 | 8.08171 | 13878 ft | 334 kts | 330° |
| 2026-04-22 19:29 | 50.62727 | 8.06778 | 13477 ft | 332 kts | 330° |
| 2026-04-22 19:29 | 50.64292 | 8.05193 | 13035 ft | 330 kts | 330° |
| 2026-04-22 19:30 | 50.65572 | 8.03897 | 12681 ft | 329 kts | 330° |
| 2026-04-22 19:30 | 50.68118 | 8.01312 | 11985 ft | 326 kts | 330° |
| 2026-04-22 19:30 | 50.70018 | 7.99378 | 11479 ft | 324 kts | 329° |
| 2026-04-22 19:30 | 50.71920 | 7.97440 | 11092 ft | 324 kts | 330° |
| 2026-04-22 19:31 | 50.73811 | 7.95516 | 10981 ft | 323 kts | 330° |
| 2026-04-22 19:31 | 50.75640 | 7.93650 | 10970 ft | 323 kts | 330° |
| 2026-04-22 19:31 | 50.77361 | 7.91214 | 10971 ft | 329 kts | 308° |
| 2026-04-22 19:31 | 50.78401 | 7.87967 | 10996 ft | 332 kts | 295° |
| 2026-04-22 19:32 | 50.79300 | 7.84638 | 11005 ft | 332 kts | 297° |
| 2026-04-22 19:32 | 50.80307 | 7.81346 | 11004 ft | 331 kts | 300° |
| 2026-04-22 19:32 | 50.81393 | 7.78118 | 11009 ft | 331 kts | 301° |
| 2026-04-22 19:32 | 50.82505 | 7.74970 | 11012 ft | 331 kts | 302° |
| 2026-04-22 19:33 | 50.83645 | 7.71812 | 11015 ft | 331 kts | 302° |
| 2026-04-22 19:33 | 50.84801 | 7.68654 | 11017 ft | 331 kts | 303° |
| 2026-04-22 19:33 | 50.85672 | 7.66288 | 11017 ft | 329 kts | 303° |
| 2026-04-22 19:33 | 50.86782 | 7.63273 | 11017 ft | 311 kts | 303° |
| 2026-04-22 19:34 | 50.87846 | 7.60382 | 11013 ft | 297 kts | 303° |
| 2026-04-22 19:34 | 50.88888 | 7.57553 | 11020 ft | 296 kts | 303° |
| 2026-04-22 19:34 | 50.89914 | 7.54761 | 11027 ft | 296 kts | 303° |
| 2026-04-22 19:34 | 50.89927 | 7.54728 | 11027 ft | 296 kts | 303° |
| 2026-04-22 19:35 | 50.90496 | 7.53173 | 11023 ft | 296 kts | 303° |
| 2026-04-22 19:35 | 50.91528 | 7.50368 | 11029 ft | 297 kts | 303° |
| 2026-04-22 19:35 | 50.92220 | 7.48488 | 11011 ft | 296 kts | 303° |
| 2026-04-22 19:35 | 50.93610 | 7.44688 | 11012 ft | 296 kts | 303° |
| 2026-04-22 19:36 | 50.94288 | 7.42837 | 11010 ft | 297 kts | 303° |
| 2026-04-22 19:36 | 50.95197 | 7.40470 | 10945 ft | 296 kts | 305° |
| 2026-04-22 19:36 | 50.96281 | 7.37733 | 10582 ft | 295 kts | 305° |
| 2026-04-22 19:36 | 50.97373 | 7.34958 | 10124 ft | 297 kts | 304° |
| 2026-04-22 19:37 | 50.98442 | 7.32239 | 9627 ft | 299 kts | 304° |
| 2026-04-22 19:37 | 50.99533 | 7.29458 | 9119 ft | 300 kts | 304° |
| 2026-04-22 19:37 | 51.00511 | 7.26962 | 8662 ft | 301 kts | 304° |
| 2026-04-22 19:37 | 51.01424 | 7.23949 | 8143 ft | 305 kts | 286° |
| 2026-04-22 19:38 | 51.01571 | 7.20587 | 7651 ft | 308 kts | 263° |
| 2026-04-22 19:38 | 51.00953 | 7.17382 | 7210 ft | 307 kts | 246° |
| 2026-04-22 19:38 | 51.00032 | 7.14347 | 7006 ft | 298 kts | 243° |
| 2026-04-22 19:38 | 50.99114 | 7.11479 | 6964 ft | 286 kts | 243° |
| 2026-04-22 19:39 | 50.98211 | 7.08671 | 6974 ft | 284 kts | 243° |
| 2026-04-22 19:39 | 50.97341 | 7.05961 | 6988 ft | 286 kts | 243° |
| 2026-04-22 19:39 | 50.96418 | 7.03087 | 6997 ft | 286 kts | 243° |
| 2026-04-22 19:39 | 50.95512 | 7.00265 | 7000 ft | 286 kts | 243° |
| 2026-04-22 19:40 | 50.94607 | 6.97448 | 7002 ft | 286 kts | 243° |
| 2026-04-22 19:40 | 50.93701 | 6.94628 | 7003 ft | 286 kts | 243° |
| 2026-04-22 19:40 | 50.93342 | 6.93516 | 6984 ft | 283 kts | 243° |
| 2026-04-22 19:40 | 50.92481 | 6.90843 | 6961 ft | 268 kts | 243° |
| 2026-04-22 19:41 | 50.91654 | 6.88279 | 6870 ft | 257 kts | 243° |
| 2026-04-22 19:41 | 50.90843 | 6.85767 | 6583 ft | 254 kts | 243° |
| 2026-04-22 19:41 | 50.90044 | 6.83278 | 6222 ft | 253 kts | 243° |
| 2026-04-22 19:41 | 50.89243 | 6.80768 | 5861 ft | 254 kts | 243° |
| 2026-04-22 19:42 | 50.89195 | 6.80615 | 5841 ft | 254 kts | 243° |
| 2026-04-22 19:42 | 50.88728 | 6.79176 | 5620 ft | 255 kts | 242° |
| 2026-04-22 19:42 | 50.87910 | 6.76658 | 5242 ft | 256 kts | 244° |
| 2026-04-22 19:42 | 50.87537 | 6.74036 | 4867 ft | 256 kts | 271° |
| 2026-04-22 19:43 | 50.88649 | 6.69785 | 4164 ft | 252 kts | 317° |
| 2026-04-22 19:43 | 50.90113 | 6.68435 | 4013 ft | 237 kts | 347° |
| 2026-04-22 19:43 | 50.91262 | 6.68270 | 3999 ft | 231 kts | 8° |
| 2026-04-22 19:44 | 50.92638 | 6.69025 | 4008 ft | 227 kts | 36° |
| 2026-04-22 19:44 | 50.93762 | 6.70744 | 4026 ft | 225 kts | 52° |
| 2026-04-22 19:44 | 50.94636 | 6.72435 | 4032 ft | 225 kts | 53° |
| 2026-04-22 19:44 | 50.95249 | 6.73750 | 3950 ft | 221 kts | 59° |
| 2026-04-22 19:45 | 50.96001 | 6.75837 | 3636 ft | 220 kts | 63° |
| 2026-04-22 19:45 | 50.96728 | 6.77971 | 3313 ft | 219 kts | 63° |
| 2026-04-22 19:45 | 50.97451 | 6.80110 | 3051 ft | 219 kts | 63° |
| 2026-04-22 19:45 | 50.98172 | 6.82247 | 3007 ft | 218 kts | 63° |
| 2026-04-22 19:46 | 50.98882 | 6.84348 | 3016 ft | 218 kts | 63° |
| 2026-04-22 19:46 | 50.99197 | 6.85279 | 3019 ft | 218 kts | 63° |
| 2026-04-22 19:46 | 50.99637 | 6.88323 | 2998 ft | 209 kts | 93° |
| 2026-04-22 19:46 | 50.99197 | 6.90390 | 3020 ft | 190 kts | 123° |
| 2026-04-22 19:47 | 50.98655 | 6.91427 | 3024 ft | 177 kts | 128° |
| 2026-04-22 19:47 | 50.97952 | 6.92810 | 2983 ft | 157 kts | 118° |
| 2026-04-22 19:47 | 50.97510 | 6.94232 | 2955 ft | 133 kts | 107° |
| 2026-04-22 19:47 | 50.97269 | 6.95634 | 2967 ft | 135 kts | 101° |
| 2026-04-22 19:48 | 50.97089 | 6.97093 | 2975 ft | 134 kts | 100° |
| 2026-04-22 19:48 | 50.96883 | 6.98582 | 2983 ft | 141 kts | 105° |
| 2026-04-22 19:48 | 50.96565 | 7.00071 | 2996 ft | 143 kts | 117° |
| 2026-04-22 19:48 | 50.95962 | 7.01321 | 3006 ft | 145 kts | 131° |
| 2026-04-22 19:49 | 50.95577 | 7.01939 | 2912 ft | 146 kts | 133° |
| 2026-04-22 19:49 | 50.95127 | 7.02598 | 2450 ft | 162 kts | 135° |
| 2026-04-22 19:49 | 50.94237 | 7.03756 | 2071 ft | 161 kts | 136° |
| 2026-04-22 19:49 | 50.93469 | 7.04955 | 1755 ft | 154 kts | 125° |
| 2026-04-22 19:50 | 50.92728 | 7.06134 | 1464 ft | 146 kts | 134° |
| 2026-04-22 19:50 | 50.91997 | 7.07120 | 1147 ft | 133 kts | 134° |
| 2026-04-22 19:50 | 50.91335 | 7.08139 | 926 ft | 133 kts | 134° |
| 2026-04-22 19:50 | 50.90633 | 7.09105 | 918 ft | 133 kts | 137° |
| 2026-04-22 19:51 | 50.89911 | 7.10058 | 661 ft | 134 kts | 133° |
| 2026-04-22 19:51 | 50.89264 | 7.11058 | 609 ft | 132 kts | 131° |
| 2026-04-22 19:51 | 50.88604 | 7.12072 | 408 ft | 131 kts | 132° |
| 2026-04-22 19:51 | 50.87939 | 7.13062 | 261 ft | 131 kts | 135° |
| 2026-04-22 19:52 | 50.87335 | 7.13942 | 247 ft | 88 kts | 137° |
| 2026-04-22 19:52 | 50.86965 | 7.14481 | 263 ft | 54 kts | 134° |
| 2026-04-22 19:52 | 50.86703 | 7.14861 | 276 ft | 50 kts | 136° |
| 2026-04-22 19:52 | 50.86470 | 7.15186 | 286 ft | 40 kts | 144° |
| 2026-04-22 19:53 | 50.86260 | 7.15322 | 297 ft | 10 kts | 167° |
| 2026-04-22 19:53 | 50.86253 | 7.15325 | 295 ft | 0 kts | 167° |
| 2026-04-22 19:53 | 50.86252 | 7.15325 | 295 ft | 1 kts | 167° |
| 2026-04-22 19:53 | 50.86216 | 7.15338 | 297 ft | 13 kts | 167° |
| 2026-04-22 19:54 | 50.86116 | 7.15357 | 296 ft | 16 kts | 190° |
| 2026-04-22 19:54 | 50.86045 | 7.15217 | 297 ft | 18 kts | 263° |
| 2026-04-22 19:54 | 50.86105 | 7.15040 | 296 ft | 20 kts | 321° |
| 2026-04-22 19:54 | 50.86213 | 7.14895 | 292 ft | 21 kts | 317° |
| 2026-04-22 19:55 | 50.86323 | 7.14734 | 282 ft | 22 kts | 317° |
| 2026-04-22 19:55 | 50.86438 | 7.14565 | 275 ft | 23 kts | 317° |
| 2026-04-22 19:55 | 50.86551 | 7.14401 | 268 ft | 21 kts | 317° |
| 2026-04-22 19:55 | 50.86655 | 7.14248 | 266 ft | 21 kts | 317° |
| 2026-04-22 19:56 | 50.86780 | 7.14120 | 260 ft | 22 kts | 329° |
| 2026-04-22 19:56 | 50.86903 | 7.13954 | 257 ft | 24 kts | 318° |
| 2026-04-22 19:56 | 50.87027 | 7.13777 | 248 ft | 25 kts | 317° |
| 2026-04-22 19:56 | 50.87157 | 7.13586 | 243 ft | 26 kts | 317° |
| 2026-04-22 19:57 | 50.87290 | 7.13389 | 238 ft | 27 kts | 317° |
| 2026-04-22 19:57 | 50.87433 | 7.13181 | 238 ft | 29 kts | 318° |
| 2026-04-22 19:57 | 50.87584 | 7.12967 | 238 ft | 24 kts | 318° |
| 2026-04-22 19:57 | 50.87710 | 7.12783 | 238 ft | 22 kts | 317° |
| 2026-04-22 19:58 | 50.87729 | 7.12755 | 238 ft | 0 kts | 317° |
| 2026-04-22 20:01 | 50.87731 | 7.12752 | 238 ft | 1 kts | 317° |
| 2026-04-22 20:02 | 50.87745 | 7.12732 | 238 ft | 4 kts | 317° |
| 2026-04-22 20:02 | 50.87749 | 7.12725 | 238 ft | 0 kts | 317° |
| 2026-04-22 20:02 | 50.87752 | 7.12722 | 238 ft | 2 kts | 317° |
| 2026-04-22 20:03 | 50.87772 | 7.12693 | 238 ft | 6 kts | 317° |
| 2026-04-22 20:03 | 50.87808 | 7.12640 | 238 ft | 8 kts | 317° |
| 2026-04-22 20:03 | 50.87870 | 7.12609 | 238 ft | 11 kts | 6° |
| 2026-04-22 20:03 | 50.87950 | 7.12581 | 238 ft | 13 kts | 320° |
| 2026-04-22 20:04 | 50.88011 | 7.12477 | 238 ft | 7 kts | 314° |
| 2026-04-22 20:04 | 50.88055 | 7.12412 | 238 ft | 10 kts | 316° |
| 2026-04-22 20:04 | 50.88094 | 7.12315 | 238 ft | 8 kts | 291° |
| 2026-04-22 20:04 | 50.88119 | 7.12226 | 238 ft | 5 kts | 307° |
| 2026-04-22 20:05 | 50.88145 | 7.12174 | 238 ft | 7 kts | 306° |
| 2026-04-22 20:05 | 50.88130 | 7.12122 | 238 ft | 2 kts | 213° |
| 2026-04-22 20:05 | 50.88115 | 7.12105 | 238 ft | 3 kts | 217° |
| 2026-04-22 20:05 | 50.88112 | 7.12101 | 238 ft | 0 kts | 217° |
| 2026-04-22 20:06 | 50.88108 | 7.12097 | 238 ft | 1 kts | 216° |
| 2026-04-22 20:06 | 50.88107 | 7.12096 | 238 ft | 0 kts | 216° |
| 2026-04-22 20:06 | 50.88106 | 7.12095 | 238 ft | 0 kts | 216° |
| 2026-04-22 20:12 | 50.88107 | 7.12095 | 238 ft | 0 kts | 216° |